sensor_id;sensor_type;location;lat;lon;timestamp;temperature;humidity
5868;DHT22;2960;49.142;7.768;2024-02-15T00:02:15;11.00;86.90
5868;DHT22;2960;49.142;7.768;2024-02-15T00:04:43;11.00;86.90
5868;DHT22;2960;49.142;7.768;2024-02-15T00:07:10;11.00;86.90
5868;DHT22;2960;49.142;7.768;2024-02-15T00:09:37;11.00;86.90
5868;DHT22;2960;49.142;7.768;2024-02-15T00:12:05;10.90;86.70
5868;DHT22;2960;49.142;7.768;2024-02-15T00:14:34;10.90;86.70
5868;DHT22;2960;49.142;7.768;2024-02-15T00:17:03;10.90;86.70
5868;DHT22;2960;49.142;7.768;2024-02-15T00:19:32;10.90;86.70
5868;DHT22;2960;49.142;7.768;2024-02-15T00:21:59;10.90;86.70
5868;DHT22;2960;49.142;7.768;2024-02-15T00:24:26;10.90;86.60
5868;DHT22;2960;49.142;7.768;2024-02-15T00:26:53;10.80;86.40
5868;DHT22;2960;49.142;7.768;2024-02-15T00:29:20;10.80;86.40
5868;DHT22;2960;49.142;7.768;2024-02-15T00:31:49;10.80;86.40
5868;DHT22;2960;49.142;7.768;2024-02-15T00:34:16;10.80;86.40
5868;DHT22;2960;49.142;7.768;2024-02-15T00:36:43;10.80;86.30
5868;DHT22;2960;49.142;7.768;2024-02-15T00:39:10;10.80;86.30
5868;DHT22;2960;49.142;7.768;2024-02-15T00:41:40;10.80;86.30
5868;DHT22;2960;49.142;7.768;2024-02-15T00:44:11;10.80;86.20
5868;DHT22;2960;49.142;7.768;2024-02-15T00:46:38;10.80;86.20
5868;DHT22;2960;49.142;7.768;2024-02-15T00:49:08;10.70;86.00
5868;DHT22;2960;49.142;7.768;2024-02-15T00:51:36;10.80;86.10
5868;DHT22;2960;49.142;7.768;2024-02-15T00:54:03;10.70;86.80
5868;DHT22;2960;49.142;7.768;2024-02-15T00:56:31;10.70;86.00
5868;DHT22;2960;49.142;7.768;2024-02-15T00:59:01;10.70;86.00
5868;DHT22;2960;49.142;7.768;2024-02-15T01:01:29;10.70;85.90
5868;DHT22;2960;49.142;7.768;2024-02-15T01:03:56;10.70;85.90
5868;DHT22;2960;49.142;7.768;2024-02-15T01:06:24;10.70;85.90
5868;DHT22;2960;49.142;7.768;2024-02-15T01:08:51;10.80;86.00
5868;DHT22;2960;49.142;7.768;2024-02-15T01:11:19;10.80;85.90
5868;DHT22;2960;49.142;7.768;2024-02-15T01:13:46;10.70;85.80
5868;DHT22;2960;49.142;7.768;2024-02-15T01:16:13;10.70;85.80
5868;DHT22;2960;49.142;7.768;2024-02-15T01:18:41;10.70;85.80
5868;DHT22;2960;49.142;7.768;2024-02-15T01:21:08;10.70;85.80
5868;DHT22;2960;49.142;7.768;2024-02-15T01:23:38;10.70;85.80
5868;DHT22;2960;49.142;7.768;2024-02-15T01:26:05;10.70;85.80
5868;DHT22;2960;49.142;7.768;2024-02-15T01:28:32;10.70;85.90
5868;DHT22;2960;49.142;7.768;2024-02-15T01:30:59;10.70;85.90
5868;DHT22;2960;49.142;7.768;2024-02-15T01:33:27;10.70;85.90
5868;DHT22;2960;49.142;7.768;2024-02-15T01:35:54;10.70;85.90
5868;DHT22;2960;49.142;7.768;2024-02-15T01:38:22;10.70;85.90
5868;DHT22;2960;49.142;7.768;2024-02-15T01:40:50;10.70;85.90
5868;DHT22;2960;49.142;7.768;2024-02-15T01:43:17;10.70;85.90
5868;DHT22;2960;49.142;7.768;2024-02-15T01:45:44;10.70;85.90
5868;DHT22;2960;49.142;7.768;2024-02-15T01:48:13;10.70;85.90
5868;DHT22;2960;49.142;7.768;2024-02-15T01:50:42;10.70;85.90
5868;DHT22;2960;49.142;7.768;2024-02-15T01:53:13;10.70;86.00
5868;DHT22;2960;49.142;7.768;2024-02-15T01:55:40;10.70;86.00
5868;DHT22;2960;49.142;7.768;2024-02-15T01:58:09;10.70;86.10
5868;DHT22;2960;49.142;7.768;2024-02-15T02:00:36;10.70;86.10
5868;DHT22;2960;49.142;7.768;2024-02-15T02:03:05;10.70;86.10
5868;DHT22;2960;49.142;7.768;2024-02-15T02:05:33;10.70;86.20
5868;DHT22;2960;49.142;7.768;2024-02-15T02:08:00;10.70;86.30
5868;DHT22;2960;49.142;7.768;2024-02-15T02:10:30;10.70;86.20
5868;DHT22;2960;49.142;7.768;2024-02-15T02:12:59;10.70;86.20
5868;DHT22;2960;49.142;7.768;2024-02-15T02:15:29;10.70;86.30
5868;DHT22;2960;49.142;7.768;2024-02-15T02:17:58;10.70;86.30
5868;DHT22;2960;49.142;7.768;2024-02-15T02:20:25;10.70;86.30
5868;DHT22;2960;49.142;7.768;2024-02-15T02:22:54;10.70;86.20
5868;DHT22;2960;49.142;7.768;2024-02-15T02:25:25;10.70;86.30
5868;DHT22;2960;49.142;7.768;2024-02-15T02:27:53;10.70;86.40
5868;DHT22;2960;49.142;7.768;2024-02-15T02:30:23;10.70;86.50
5868;DHT22;2960;49.142;7.768;2024-02-15T02:32:55;10.70;86.50
5868;DHT22;2960;49.142;7.768;2024-02-15T02:35:22;10.70;86.50
5868;DHT22;2960;49.142;7.768;2024-02-15T02:37:50;10.70;86.60
5868;DHT22;2960;49.142;7.768;2024-02-15T02:40:18;10.70;86.60
5868;DHT22;2960;49.142;7.768;2024-02-15T02:42:51;10.70;86.60
5868;DHT22;2960;49.142;7.768;2024-02-15T02:45:22;10.70;86.70
5868;DHT22;2960;49.142;7.768;2024-02-15T02:47:49;10.70;86.70
5868;DHT22;2960;49.142;7.768;2024-02-15T02:50:17;10.70;86.70
5868;DHT22;2960;49.142;7.768;2024-02-15T02:52:44;10.70;86.70
5868;DHT22;2960;49.142;7.768;2024-02-15T02:55:14;10.70;86.70
5868;DHT22;2960;49.142;7.768;2024-02-15T02:57:42;10.80;86.90
5868;DHT22;2960;49.142;7.768;2024-02-15T03:00:14;10.70;86.80
5868;DHT22;2960;49.142;7.768;2024-02-15T03:02:42;10.80;86.90
5868;DHT22;2960;49.142;7.768;2024-02-15T03:05:10;10.70;86.80
5868;DHT22;2960;49.142;7.768;2024-02-15T03:07:38;10.70;86.80
5868;DHT22;2960;49.142;7.768;2024-02-15T03:10:07;10.70;86.80
5868;DHT22;2960;49.142;7.768;2024-02-15T03:12:35;10.80;86.90
5868;DHT22;2960;49.142;7.768;2024-02-15T03:15:03;10.70;86.80
5868;DHT22;2960;49.142;7.768;2024-02-15T03:17:32;10.70;86.90
5868;DHT22;2960;49.142;7.768;2024-02-15T03:19:59;10.70;86.90
5868;DHT22;2960;49.142;7.768;2024-02-15T03:22:28;10.80;87.00
5868;DHT22;2960;49.142;7.768;2024-02-15T03:24:55;10.80;87.00
5868;DHT22;2960;49.142;7.768;2024-02-15T03:27:23;10.80;87.00
5868;DHT22;2960;49.142;7.768;2024-02-15T03:29:50;10.80;87.00
5868;DHT22;2960;49.142;7.768;2024-02-15T03:32:18;10.80;87.00
5868;DHT22;2960;49.142;7.768;2024-02-15T03:34:46;10.80;87.00
5868;DHT22;2960;49.142;7.768;2024-02-15T03:37:13;10.80;87.10
5868;DHT22;2960;49.142;7.768;2024-02-15T03:39:41;10.80;87.00
5868;DHT22;2960;49.142;7.768;2024-02-15T03:42:08;10.80;87.00
5868;DHT22;2960;49.142;7.768;2024-02-15T03:44:35;10.80;86.90
5868;DHT22;2960;49.142;7.768;2024-02-15T03:47:04;10.80;87.00
5868;DHT22;2960;49.142;7.768;2024-02-15T03:49:31;10.80;87.10
5868;DHT22;2960;49.142;7.768;2024-02-15T03:51:59;10.80;87.90
5868;DHT22;2960;49.142;7.768;2024-02-15T03:54:27;10.80;87.20
5868;DHT22;2960;49.142;7.768;2024-02-15T03:56:55;10.80;87.20
5868;DHT22;2960;49.142;7.768;2024-02-15T03:59:23;10.80;87.20
5868;DHT22;2960;49.142;7.768;2024-02-15T04:01:52;10.80;87.20
5868;DHT22;2960;49.142;7.768;2024-02-15T04:04:20;10.80;87.30
5868;DHT22;2960;49.142;7.768;2024-02-15T04:06:47;10.80;87.30
5868;DHT22;2960;49.142;7.768;2024-02-15T04:09:16;10.80;87.30
5868;DHT22;2960;49.142;7.768;2024-02-15T04:11:44;10.80;87.30
5868;DHT22;2960;49.142;7.768;2024-02-15T04:14:12;10.80;88.10
5868;DHT22;2960;49.142;7.768;2024-02-15T04:16:39;10.80;87.30
5868;DHT22;2960;49.142;7.768;2024-02-15T04:19:06;10.80;87.20
5868;DHT22;2960;49.142;7.768;2024-02-15T04:21:34;10.80;87.20
5868;DHT22;2960;49.142;7.768;2024-02-15T04:24:01;10.80;87.20
5868;DHT22;2960;49.142;7.768;2024-02-15T04:26:29;10.80;87.30
5868;DHT22;2960;49.142;7.768;2024-02-15T04:28:57;10.80;87.30
5868;DHT22;2960;49.142;7.768;2024-02-15T04:31:25;10.80;87.30
5868;DHT22;2960;49.142;7.768;2024-02-15T04:33:53;10.80;87.30
5868;DHT22;2960;49.142;7.768;2024-02-15T04:36:20;10.80;88.10
5868;DHT22;2960;49.142;7.768;2024-02-15T04:38:50;10.80;88.10
5868;DHT22;2960;49.142;7.768;2024-02-15T04:41:18;10.80;87.40
5868;DHT22;2960;49.142;7.768;2024-02-15T04:43:50;10.80;87.30
5868;DHT22;2960;49.142;7.768;2024-02-15T04:46:18;10.80;87.40
5868;DHT22;2960;49.142;7.768;2024-02-15T04:48:47;10.80;87.40
5868;DHT22;2960;49.142;7.768;2024-02-15T04:51:16;10.80;87.40
5868;DHT22;2960;49.142;7.768;2024-02-15T04:53:45;10.80;87.40
5868;DHT22;2960;49.142;7.768;2024-02-15T04:56:15;10.80;87.50
5868;DHT22;2960;49.142;7.768;2024-02-15T04:58:43;10.70;87.40
5868;DHT22;2960;49.142;7.768;2024-02-15T05:01:15;10.70;87.60
5868;DHT22;2960;49.142;7.768;2024-02-15T05:03:43;10.70;88.30
5868;DHT22;2960;49.142;7.768;2024-02-15T05:06:11;10.70;87.60
5868;DHT22;2960;49.142;7.768;2024-02-15T05:08:39;10.70;87.70
5868;DHT22;2960;49.142;7.768;2024-02-15T05:11:09;10.70;87.70
5868;DHT22;2960;49.142;7.768;2024-02-15T05:13:42;10.70;87.80
5868;DHT22;2960;49.142;7.768;2024-02-15T05:16:10;10.70;88.70
5868;DHT22;2960;49.142;7.768;2024-02-15T05:18:39;10.70;88.00
5868;DHT22;2960;49.142;7.768;2024-02-15T05:21:06;10.70;88.80
5868;DHT22;2960;49.142;7.768;2024-02-15T05:23:35;10.70;88.80
5868;DHT22;2960;49.142;7.768;2024-02-15T05:26:03;10.70;88.10
5868;DHT22;2960;49.142;7.768;2024-02-15T05:28:30;10.70;88.10
5868;DHT22;2960;49.142;7.768;2024-02-15T05:31:11;10.70;88.10
5868;DHT22;2960;49.142;7.768;2024-02-15T05:33:44;10.70;88.00
5868;DHT22;2960;49.142;7.768;2024-02-15T05:36:13;10.70;88.10
5868;DHT22;2960;49.142;7.768;2024-02-15T05:38:41;10.70;88.10
5868;DHT22;2960;49.142;7.768;2024-02-15T05:41:11;10.70;88.10
5868;DHT22;2960;49.142;7.768;2024-02-15T05:43:39;10.70;88.10
5868;DHT22;2960;49.142;7.768;2024-02-15T05:46:07;10.70;88.00
5868;DHT22;2960;49.142;7.768;2024-02-15T05:48:35;10.70;88.00
5868;DHT22;2960;49.142;7.768;2024-02-15T05:51:05;10.70;88.00
5868;DHT22;2960;49.142;7.768;2024-02-15T05:53:33;10.70;88.00
5868;DHT22;2960;49.142;7.768;2024-02-15T05:56:02;10.70;87.90
5868;DHT22;2960;49.142;7.768;2024-02-15T05:58:30;10.70;87.90
5868;DHT22;2960;49.142;7.768;2024-02-15T06:00:58;10.70;87.90
5868;DHT22;2960;49.142;7.768;2024-02-15T06:03:27;10.70;88.00
5868;DHT22;2960;49.142;7.768;2024-02-15T06:05:54;10.60;88.50
5868;DHT22;2960;49.142;7.768;2024-02-15T06:08:25;10.70;87.70
5868;DHT22;2960;49.142;7.768;2024-02-15T06:10:53;10.60;87.60
5868;DHT22;2960;49.142;7.768;2024-02-15T06:13:20;10.60;87.60
5868;DHT22;2960;49.142;7.768;2024-02-15T06:15:48;10.60;87.60
5868;DHT22;2960;49.142;7.768;2024-02-15T06:18:18;10.60;87.70
5868;DHT22;2960;49.142;7.768;2024-02-15T06:20:47;10.60;87.60
5868;DHT22;2960;49.142;7.768;2024-02-15T06:23:16;10.50;87.50
5868;DHT22;2960;49.142;7.768;2024-02-15T06:25:45;10.50;87.40
5868;DHT22;2960;49.142;7.768;2024-02-15T06:28:14;10.50;87.40
5868;DHT22;2960;49.142;7.768;2024-02-15T06:31:06;10.50;87.30
5868;DHT22;2960;49.142;7.768;2024-02-15T06:33:51;10.50;87.40
5868;DHT22;2960;49.142;7.768;2024-02-15T06:36:39;10.50;87.30
5868;DHT22;2960;49.142;7.768;2024-02-15T06:39:24;10.40;87.20
5868;DHT22;2960;49.142;7.768;2024-02-15T06:42:12;10.40;87.20
5868;DHT22;2960;49.142;7.768;2024-02-15T06:44:41;10.40;87.20
5868;DHT22;2960;49.142;7.768;2024-02-15T06:47:09;10.40;87.20
5868;DHT22;2960;49.142;7.768;2024-02-15T06:49:36;10.40;87.10
5868;DHT22;2960;49.142;7.768;2024-02-15T06:52:06;10.30;87.60
5868;DHT22;2960;49.142;7.768;2024-02-15T06:54:34;10.30;86.90
5868;DHT22;2960;49.142;7.768;2024-02-15T06:57:02;10.30;87.50
5868;DHT22;2960;49.142;7.768;2024-02-15T06:59:31;10.30;86.80
5868;DHT22;2960;49.142;7.768;2024-02-15T07:02:00;10.30;86.80
5868;DHT22;2960;49.142;7.768;2024-02-15T07:04:31;10.30;86.80
5868;DHT22;2960;49.142;7.768;2024-02-15T07:06:58;10.30;86.80
5868;DHT22;2960;49.142;7.768;2024-02-15T07:09:27;10.20;86.60
5868;DHT22;2960;49.142;7.768;2024-02-15T07:11:54;10.20;86.60
5868;DHT22;2960;49.142;7.768;2024-02-15T07:14:21;10.20;86.60
5868;DHT22;2960;49.142;7.768;2024-02-15T07:16:50;10.20;86.50
5868;DHT22;2960;49.142;7.768;2024-02-15T07:19:18;10.20;86.60
5868;DHT22;2960;49.142;7.768;2024-02-15T07:21:46;10.20;86.50
5868;DHT22;2960;49.142;7.768;2024-02-15T07:24:13;10.20;86.50
5868;DHT22;2960;49.142;7.768;2024-02-15T07:26:40;10.20;86.50
5868;DHT22;2960;49.142;7.768;2024-02-15T07:29:07;10.20;86.60
5868;DHT22;2960;49.142;7.768;2024-02-15T07:31:36;10.20;86.50
5868;DHT22;2960;49.142;7.768;2024-02-15T07:34:05;10.20;86.50
5868;DHT22;2960;49.142;7.768;2024-02-15T07:36:32;10.20;86.40
5868;DHT22;2960;49.142;7.768;2024-02-15T07:39:01;10.20;86.30
5868;DHT22;2960;49.142;7.768;2024-02-15T07:41:28;10.20;86.30
5868;DHT22;2960;49.142;7.768;2024-02-15T07:43:56;10.20;86.20
5868;DHT22;2960;49.142;7.768;2024-02-15T07:46:24;10.30;86.30
5868;DHT22;2960;49.142;7.768;2024-02-15T07:48:51;10.30;86.30
5868;DHT22;2960;49.142;7.768;2024-02-15T07:51:20;10.30;86.30
5868;DHT22;2960;49.142;7.768;2024-02-15T07:53:48;10.30;86.20
5868;DHT22;2960;49.142;7.768;2024-02-15T07:56:16;10.30;87.00
5868;DHT22;2960;49.142;7.768;2024-02-15T07:58:47;10.30;86.30
5868;DHT22;2960;49.142;7.768;2024-02-15T08:01:17;10.30;86.30
5868;DHT22;2960;49.142;7.768;2024-02-15T08:03:46;10.30;86.30
5868;DHT22;2960;49.142;7.768;2024-02-15T08:06:14;10.40;86.40
5868;DHT22;2960;49.142;7.768;2024-02-15T08:08:45;10.50;86.50
5868;DHT22;2960;49.142;7.768;2024-02-15T08:11:14;10.50;86.50
5868;DHT22;2960;49.142;7.768;2024-02-15T08:13:43;10.60;86.60
5868;DHT22;2960;49.142;7.768;2024-02-15T08:16:13;10.70;86.60
5868;DHT22;2960;49.142;7.768;2024-02-15T08:18:41;10.80;86.60
5868;DHT22;2960;49.142;7.768;2024-02-15T08:21:09;10.90;86.60
5868;DHT22;2960;49.142;7.768;2024-02-15T08:23:37;11.00;86.60
5868;DHT22;2960;49.142;7.768;2024-02-15T08:26:05;11.20;86.70
5868;DHT22;2960;49.142;7.768;2024-02-15T08:28:32;11.30;86.70
5868;DHT22;2960;49.142;7.768;2024-02-15T08:31:00;11.40;86.60
5868;DHT22;2960;49.142;7.768;2024-02-15T08:33:27;11.60;86.50
5868;DHT22;2960;49.142;7.768;2024-02-15T08:35:54;11.70;86.40
5868;DHT22;2960;49.142;7.768;2024-02-15T08:38:21;11.80;86.30
5868;DHT22;2960;49.142;7.768;2024-02-15T08:40:49;11.90;86.50
5868;DHT22;2960;49.142;7.768;2024-02-15T08:43:17;11.90;86.10
5868;DHT22;2960;49.142;7.768;2024-02-15T08:45:45;12.00;86.10
5868;DHT22;2960;49.142;7.768;2024-02-15T08:48:13;12.20;86.10
5868;DHT22;2960;49.142;7.768;2024-02-15T08:50:40;12.30;85.90
5868;DHT22;2960;49.142;7.768;2024-02-15T08:53:11;12.40;85.70
5868;DHT22;2960;49.142;7.768;2024-02-15T08:55:40;12.50;85.50
5868;DHT22;2960;49.142;7.768;2024-02-15T08:58:07;12.60;85.40
5868;DHT22;2960;49.142;7.768;2024-02-15T09:00:36;12.70;85.40
5868;DHT22;2960;49.142;7.768;2024-02-15T09:03:10;12.80;85.20
5868;DHT22;2960;49.142;7.768;2024-02-15T09:05:38;12.90;85.20
5868;DHT22;2960;49.142;7.768;2024-02-15T09:08:06;13.00;85.00
5868;DHT22;2960;49.142;7.768;2024-02-15T09:10:33;13.10;84.90
5868;DHT22;2960;49.142;7.768;2024-02-15T09:13:01;13.20;84.70
5868;DHT22;2960;49.142;7.768;2024-02-15T09:15:29;13.30;84.50
5868;DHT22;2960;49.142;7.768;2024-02-15T09:17:58;13.30;84.10
5868;DHT22;2960;49.142;7.768;2024-02-15T09:20:25;13.40;84.00
5868;DHT22;2960;49.142;7.768;2024-02-15T09:22:54;13.40;83.60
5868;DHT22;2960;49.142;7.768;2024-02-15T09:25:23;13.50;83.50
5868;DHT22;2960;49.142;7.768;2024-02-15T09:27:51;13.50;83.30
5868;DHT22;2960;49.142;7.768;2024-02-15T09:30:19;13.60;83.10
5868;DHT22;2960;49.142;7.768;2024-02-15T09:32:50;13.60;83.00
5868;DHT22;2960;49.142;7.768;2024-02-15T09:35:19;13.60;82.70
5868;DHT22;2960;49.142;7.768;2024-02-15T09:37:48;13.70;82.60
5868;DHT22;2960;49.142;7.768;2024-02-15T09:40:16;13.70;82.40
5868;DHT22;2960;49.142;7.768;2024-02-15T09:42:44;13.80;82.30
5868;DHT22;2960;49.142;7.768;2024-02-15T09:45:12;13.80;82.20
5868;DHT22;2960;49.142;7.768;2024-02-15T09:47:40;13.80;82.00
5868;DHT22;2960;49.142;7.768;2024-02-15T09:50:09;13.90;81.90
5868;DHT22;2960;49.142;7.768;2024-02-15T09:52:43;14.00;81.90
5868;DHT22;2960;49.142;7.768;2024-02-15T09:55:12;14.00;81.60
5868;DHT22;2960;49.142;7.768;2024-02-15T09:57:39;14.00;81.40
5868;DHT22;2960;49.142;7.768;2024-02-15T10:00:10;14.10;81.30
5868;DHT22;2960;49.142;7.768;2024-02-15T10:02:40;14.10;81.20
5868;DHT22;2960;49.142;7.768;2024-02-15T10:05:10;14.20;81.10
5868;DHT22;2960;49.142;7.768;2024-02-15T10:07:39;14.30;81.00
5868;DHT22;2960;49.142;7.768;2024-02-15T10:10:15;14.40;80.90
5868;DHT22;2960;49.142;7.768;2024-02-15T10:12:46;14.40;80.70
5868;DHT22;2960;49.142;7.768;2024-02-15T10:15:33;14.50;80.70
5868;DHT22;2960;49.142;7.768;2024-02-15T10:18:02;14.60;80.60
5868;DHT22;2960;49.142;7.768;2024-02-15T10:20:30;14.70;80.60
5868;DHT22;2960;49.142;7.768;2024-02-15T10:23:10;14.80;80.50
5868;DHT22;2960;49.142;7.768;2024-02-15T10:25:38;14.90;80.30
5868;DHT22;2960;49.142;7.768;2024-02-15T10:28:07;15.10;80.30
5868;DHT22;2960;49.142;7.768;2024-02-15T10:30:36;15.20;80.10
5868;DHT22;2960;49.142;7.768;2024-02-15T10:33:18;15.40;79.80
5868;DHT22;2960;49.142;7.768;2024-02-15T10:35:46;15.50;79.50
5868;DHT22;2960;49.142;7.768;2024-02-15T10:38:15;15.60;79.20
5868;DHT22;2960;49.142;7.768;2024-02-15T10:40:42;15.70;78.90
5868;DHT22;2960;49.142;7.768;2024-02-15T10:43:11;15.70;78.60
5868;DHT22;2960;49.142;7.768;2024-02-15T10:45:39;15.80;78.50
5868;DHT22;2960;49.142;7.768;2024-02-15T10:48:08;15.90;78.40
5868;DHT22;2960;49.142;7.768;2024-02-15T10:50:35;16.00;78.20
5868;DHT22;2960;49.142;7.768;2024-02-15T10:53:11;16.00;77.90
5868;DHT22;2960;49.142;7.768;2024-02-15T10:55:48;16.10;77.60
5868;DHT22;2960;49.142;7.768;2024-02-15T10:58:20;16.10;77.40
5868;DHT22;2960;49.142;7.768;2024-02-15T11:00:50;16.20;77.20
5868;DHT22;2960;49.142;7.768;2024-02-15T11:03:23;16.20;76.90
5868;DHT22;2960;49.142;7.768;2024-02-15T11:05:52;16.20;76.70
5868;DHT22;2960;49.142;7.768;2024-02-15T11:08:22;16.30;76.80
5868;DHT22;2960;49.142;7.768;2024-02-15T11:10:50;16.40;76.80
5868;DHT22;2960;49.142;7.768;2024-02-15T11:13:19;16.60;76.70
5868;DHT22;2960;49.142;7.768;2024-02-15T11:15:46;16.80;76.60
5868;DHT22;2960;49.142;7.768;2024-02-15T11:18:42;17.00;76.40
5868;DHT22;2960;49.142;7.768;2024-02-15T11:21:11;17.30;76.30
5868;DHT22;2960;49.142;7.768;2024-02-15T11:23:40;17.40;75.90
5868;DHT22;2960;49.142;7.768;2024-02-15T11:26:43;17.70;75.70
5868;DHT22;2960;49.142;7.768;2024-02-15T11:29:49;18.00;75.20
5868;DHT22;2960;49.142;7.768;2024-02-15T11:32:40;18.20;75.30
5868;DHT22;2960;49.142;7.768;2024-02-15T11:35:11;18.40;73.80
5868;DHT22;2960;49.142;7.768;2024-02-15T11:37:52;18.50;73.00
5868;DHT22;2960;49.142;7.768;2024-02-15T11:40:23;18.50;72.40
5868;DHT22;2960;49.142;7.768;2024-02-15T11:42:53;18.60;72.20
5868;DHT22;2960;49.142;7.768;2024-02-15T11:45:23;18.60;71.90
5868;DHT22;2960;49.142;7.768;2024-02-15T11:47:51;18.60;71.50
5868;DHT22;2960;49.142;7.768;2024-02-15T11:50:20;18.70;72.20
5868;DHT22;2960;49.142;7.768;2024-02-15T11:52:48;18.60;71.00
5868;DHT22;2960;49.142;7.768;2024-02-15T11:55:19;18.60;70.80
5868;DHT22;2960;49.142;7.768;2024-02-15T11:57:57;18.60;70.20
5868;DHT22;2960;49.142;7.768;2024-02-15T12:00:28;18.60;70.90
5868;DHT22;2960;49.142;7.768;2024-02-15T12:03:10;18.50;69.90
5868;DHT22;2960;49.142;7.768;2024-02-15T12:05:55;18.50;69.70
5868;DHT22;2960;49.142;7.768;2024-02-15T12:08:40;18.50;69.60
5868;DHT22;2960;49.142;7.768;2024-02-15T12:11:28;18.50;69.40
5868;DHT22;2960;49.142;7.768;2024-02-15T12:14:14;18.40;69.10
5868;DHT22;2960;49.142;7.768;2024-02-15T12:17:01;18.40;68.80
5868;DHT22;2960;49.142;7.768;2024-02-15T12:19:48;18.30;68.60
5868;DHT22;2960;49.142;7.768;2024-02-15T12:22:18;18.20;68.40
5868;DHT22;2960;49.142;7.768;2024-02-15T12:24:57;18.20;68.40
5868;DHT22;2960;49.142;7.768;2024-02-15T12:27:26;18.10;68.00
5868;DHT22;2960;49.142;7.768;2024-02-15T12:29:57;18.00;67.20
5868;DHT22;2960;49.142;7.768;2024-02-15T12:32:26;17.90;67.20
5868;DHT22;2960;49.142;7.768;2024-02-15T12:35:09;17.80;67.30
5868;DHT22;2960;49.142;7.768;2024-02-15T12:37:41;17.80;67.30
5868;DHT22;2960;49.142;7.768;2024-02-15T12:40:12;17.70;67.20
5868;DHT22;2960;49.142;7.768;2024-02-15T12:42:42;17.60;66.90
5868;DHT22;2960;49.142;7.768;2024-02-15T12:45:16;17.50;66.90
5868;DHT22;2960;49.142;7.768;2024-02-15T12:47:48;17.50;66.90
5868;DHT22;2960;49.142;7.768;2024-02-15T12:50:20;17.40;66.70
5868;DHT22;2960;49.142;7.768;2024-02-15T12:52:50;17.40;66.60
5868;DHT22;2960;49.142;7.768;2024-02-15T12:55:20;17.30;66.40
5868;DHT22;2960;49.142;7.768;2024-02-15T12:57:51;17.30;66.30
5868;DHT22;2960;49.142;7.768;2024-02-15T13:00:21;17.20;66.20
5868;DHT22;2960;49.142;7.768;2024-02-15T13:02:54;17.20;66.10
5868;DHT22;2960;49.142;7.768;2024-02-15T13:05:22;17.10;66.00
5868;DHT22;2960;49.142;7.768;2024-02-15T13:07:53;17.10;66.10
5868;DHT22;2960;49.142;7.768;2024-02-15T13:10:22;17.10;66.10
5868;DHT22;2960;49.142;7.768;2024-02-15T13:12:52;17.10;65.90
5868;DHT22;2960;49.142;7.768;2024-02-15T13:15:23;17.10;65.90
5868;DHT22;2960;49.142;7.768;2024-02-15T13:17:58;17.10;65.80
5868;DHT22;2960;49.142;7.768;2024-02-15T13:20:26;17.10;65.70
5868;DHT22;2960;49.142;7.768;2024-02-15T13:22:57;17.10;65.70
5868;DHT22;2960;49.142;7.768;2024-02-15T13:25:27;17.10;65.60
5868;DHT22;2960;49.142;7.768;2024-02-15T13:27:55;17.00;65.50
5868;DHT22;2960;49.142;7.768;2024-02-15T13:30:24;17.00;65.40
5868;DHT22;2960;49.142;7.768;2024-02-15T13:32:53;17.00;65.40
5868;DHT22;2960;49.142;7.768;2024-02-15T13:35:21;17.00;65.20
5868;DHT22;2960;49.142;7.768;2024-02-15T13:37:50;17.00;65.20
5868;DHT22;2960;49.142;7.768;2024-02-15T13:40:19;17.00;65.90
5868;DHT22;2960;49.142;7.768;2024-02-15T13:42:50;17.00;65.10
5868;DHT22;2960;49.142;7.768;2024-02-15T13:45:19;17.10;65.20
5868;DHT22;2960;49.142;7.768;2024-02-15T13:47:49;17.10;65.20
5868;DHT22;2960;49.142;7.768;2024-02-15T13:50:19;17.10;65.20
5868;DHT22;2960;49.142;7.768;2024-02-15T13:52:47;17.10;65.30
5868;DHT22;2960;49.142;7.768;2024-02-15T13:55:15;17.10;65.20
5868;DHT22;2960;49.142;7.768;2024-02-15T13:57:44;17.10;65.20
5868;DHT22;2960;49.142;7.768;2024-02-15T14:00:13;17.10;65.20
5868;DHT22;2960;49.142;7.768;2024-02-15T14:02:49;17.00;64.60
5868;DHT22;2960;49.142;7.768;2024-02-15T14:05:16;17.00;64.50
5868;DHT22;2960;49.142;7.768;2024-02-15T14:07:47;17.00;64.50
5868;DHT22;2960;49.142;7.768;2024-02-15T14:10:15;17.00;64.50
5868;DHT22;2960;49.142;7.768;2024-02-15T14:12:44;16.90;64.30
5868;DHT22;2960;49.142;7.768;2024-02-15T14:15:11;17.00;64.40
5868;DHT22;2960;49.142;7.768;2024-02-15T14:17:38;17.00;64.30
5868;DHT22;2960;49.142;7.768;2024-02-15T14:20:08;17.00;64.10
5868;DHT22;2960;49.142;7.768;2024-02-15T14:22:39;16.90;63.50
5868;DHT22;2960;49.142;7.768;2024-02-15T14:25:07;16.90;63.50
5868;DHT22;2960;49.142;7.768;2024-02-15T14:27:35;16.90;63.60
5868;DHT22;2960;49.142;7.768;2024-02-15T14:30:03;16.80;63.50
5868;DHT22;2960;49.142;7.768;2024-02-15T14:32:49;16.80;63.40
5868;DHT22;2960;49.142;7.768;2024-02-15T14:35:33;16.80;63.10
5868;DHT22;2960;49.142;7.768;2024-02-15T14:38:02;16.80;63.10
5868;DHT22;2960;49.142;7.768;2024-02-15T14:40:33;16.80;63.90
5868;DHT22;2960;49.142;7.768;2024-02-15T14:43:01;16.70;62.60
5868;DHT22;2960;49.142;7.768;2024-02-15T14:45:30;16.70;62.60
5868;DHT22;2960;49.142;7.768;2024-02-15T14:47:58;16.70;62.70
5868;DHT22;2960;49.142;7.768;2024-02-15T14:50:25;16.70;62.60
5868;DHT22;2960;49.142;7.768;2024-02-15T14:52:54;16.60;62.50
5868;DHT22;2960;49.142;7.768;2024-02-15T14:55:22;16.60;62.50
5868;DHT22;2960;49.142;7.768;2024-02-15T14:57:49;16.60;62.60
5868;DHT22;2960;49.142;7.768;2024-02-15T15:00:16;16.50;62.00
5868;DHT22;2960;49.142;7.768;2024-02-15T15:02:46;16.60;62.20
5868;DHT22;2960;49.142;7.768;2024-02-15T15:05:15;16.50;62.10
5868;DHT22;2960;49.142;7.768;2024-02-15T15:08:01;16.50;62.20
5868;DHT22;2960;49.142;7.768;2024-02-15T15:10:47;16.50;62.20
5868;DHT22;2960;49.142;7.768;2024-02-15T15:13:32;16.40;62.20
5868;DHT22;2960;49.142;7.768;2024-02-15T15:16:00;16.40;63.10
5868;DHT22;2960;49.142;7.768;2024-02-15T15:18:28;16.40;62.40
5868;DHT22;2960;49.142;7.768;2024-02-15T15:20:57;16.40;62.40
5868;DHT22;2960;49.142;7.768;2024-02-15T15:23:26;16.40;62.50
5868;DHT22;2960;49.142;7.768;2024-02-15T15:25:56;16.40;62.60
5868;DHT22;2960;49.142;7.768;2024-02-15T15:28:24;16.40;62.60
5868;DHT22;2960;49.142;7.768;2024-02-15T15:30:51;16.40;62.70
5868;DHT22;2960;49.142;7.768;2024-02-15T15:33:18;16.40;63.60
5868;DHT22;2960;49.142;7.768;2024-02-15T15:35:49;16.40;62.80
5868;DHT22;2960;49.142;7.768;2024-02-15T15:38:20;16.30;62.90
5868;DHT22;2960;49.142;7.768;2024-02-15T15:40:48;16.30;62.80
5868;DHT22;2960;49.142;7.768;2024-02-15T15:43:16;16.30;62.90
5868;DHT22;2960;49.142;7.768;2024-02-15T15:45:45;16.30;63.00
5868;DHT22;2960;49.142;7.768;2024-02-15T15:48:13;16.30;63.10
5868;DHT22;2960;49.142;7.768;2024-02-15T15:50:40;16.40;63.30
5868;DHT22;2960;49.142;7.768;2024-02-15T15:53:09;16.40;63.20
5868;DHT22;2960;49.142;7.768;2024-02-15T15:55:37;16.40;63.20
5868;DHT22;2960;49.142;7.768;2024-02-15T15:58:05;16.50;63.30
5868;DHT22;2960;49.142;7.768;2024-02-15T16:00:33;16.50;63.30
5868;DHT22;2960;49.142;7.768;2024-02-15T16:03:01;16.60;63.40
5868;DHT22;2960;49.142;7.768;2024-02-15T16:05:32;16.60;63.40
5868;DHT22;2960;49.142;7.768;2024-02-15T16:07:59;16.60;63.40
5868;DHT22;2960;49.142;7.768;2024-02-15T16:10:30;16.70;63.60
5868;DHT22;2960;49.142;7.768;2024-02-15T16:12:57;16.70;63.50
5868;DHT22;2960;49.142;7.768;2024-02-15T16:15:28;16.70;63.60
5868;DHT22;2960;49.142;7.768;2024-02-15T16:17:56;16.70;64.40
5868;DHT22;2960;49.142;7.768;2024-02-15T16:20:25;16.70;63.70